• Join FlightAware (Why Join?)
  • Login
  • US Flag 
01:49PM EDT


 

Airport Tracker/Info


-or-


 

Live Flight TrackerFlight Track Log ✈ UCA4770 ✈ 29-Apr-2012 ✈ KPIT - KCLE

Flight Track Log - Related Links

Times and Time Zones

All times are in EDT time to prevent confusion due to time zone crossing. See the UCA4770 flight status page for this flight to view local times or setup timezone preferences in your user account.

Time Position Orientation Groundspeed Altitude Reporting Facility
EDT Latitude Longitude Course Direction KTS MPH feet Rate Location/Type
07:23PM 40.5586 -80.5519 284° West 173 199 8,100  Level FAA TRACON SMA TRACON (SMA)
07:23PM 40.5669 -80.5944 285° West 173 199 9,000 1,200 Climbing FAA TRACON SMA TRACON (SMA)
07:24PM 40.5750 -80.6328 287° West 174 200 9,700 720 Climbing FAA TRACON SMA TRACON (SMA)
07:25PM 40.5853 -80.6783 288° West 191 220 10,000 180 Climbing FAA TRACON SMA TRACON (SMA)
07:25PM 40.5986 -80.7322 297° West 226 260 10,000  Level FAA TRACON SMA TRACON (SMA)
07:26PM 40.6183 -80.7831 298° West 226 260 10,000  Level FAA TRACON SMA TRACON (SMA)
07:27PM 40.6442 -80.8458 295° West 220 253 10,000  Level Cleveland Center
07:28PM 40.6711 -80.9225 295° West 227 261 10,000  Level Cleveland Center
07:29PM 40.6981 -80.9994 296° West 237 273 10,000  Level Cleveland Center
07:30PM 40.7311 -81.0872 294° West 237 273 10,000 -180 Level Cleveland Center
07:31PM 40.7578 -81.1669 297° West 237 273 9,700 -540 Descending Cleveland Center
07:32PM 40.7886 -81.2467 291° West 237 273 9,000 -480 Descending Cleveland Center
07:33PM 40.8008 -81.2881 295° West 247 284 9,000  Level Cleveland Center
07:34PM 40.8294 -81.3706 295° West 240 276 9,000  Level Cleveland Center
07:35PM 40.8581 -81.4533 295° West 237 273 9,000  Level Cleveland Center
07:36PM 40.8906 -81.5444 294° West 237 273 9,000  Level Cleveland Center
07:37PM 40.9211 -81.6356 311° West 236 272 9,000  Level Cleveland Center
07:38PM 40.9519 -81.6828 319° Northwest 236 272 9,000  Level Cleveland Center
07:39PM 41.0158 -81.7553 316° Northwest 237 273 9,000 -240 Level Cleveland Center
07:40PM 41.0550 -81.8056 333° Northwest 240 276 8,600 -840 Descending Cleveland Center
07:41PM 41.1233 -81.8511 337° Northwest 256 295 7,500 -1,320 Descending Cleveland Center
07:42PM 41.2081 -81.8997 333° Northwest 263 303 5,600 -1,560 Descending Cleveland Center
07:43PM 41.2619 -81.9367 North 259 298 4,200 -1,740 Descending Cleveland Center
07:44PM 41.3203 -81.9350 19° North 244 281 2,700 -1,320 Descending Cleveland Center
07:45PM 41.3728 -81.9114 49° Northeast 166 191 1,700 -900 Descending Cleveland Center
07:46PM 41.3981 -81.8731 49° Northeast 132 152 900 -840 Descending Cleveland Center